• Join FlightAware (Why Join?)
  • Login
  • US Flag 
08:14AM EDT


 

Airport Tracker/Info


-or-


 

Live Flight TrackerFlight Track Log ✈ SWA2874 ✈ 06-May-2013 ✈ KHOU - KMSY

Flight Track Log - Related Links

Times and Time Zones

All times are in EDT time to prevent confusion due to time zone crossing. See the SWA2874 flight status page for this flight to view local times or setup timezone preferences in your user account.

Time Position Orientation Groundspeed Altitude Reporting Facility
EDT Latitude Longitude Course Direction KTS MPH feet Rate Location/Type
02:38PM 29.6186 -95.3128 228° Southwest 181 208 2,100  Level Houston Center
02:40PM 29.5431 -95.2472 143° Southeast 264 304 8,400 2,460 Climbing Houston Center
02:41PM 29.5656 -95.1381 77° East 303 349 10,000 2,340 Climbing Houston Center
02:43PM 29.7000 -94.6170 90° East  Level FlightAware Approximate
02:43PM 29.5854 -94.9499 85° East  Level Estimated
02:43PM 29.6078 -94.9294 85° East 341 392 15,800  Level Houston Center
02:44PM 29.6300 -94.8144 77° East 363 418 19,000 3,060 Climbing Houston Center
02:46PM 29.6836 -94.5364 77° East 409 471 25,400 2,640 Climbing Houston Center
02:47PM 29.7100 -94.3961 78° East 437 503 27,300 2,340 Climbing Houston Center
02:49PM 29.7021 -94.2314 99° East  Level FlightAware Approximate
02:49PM 29.6939 -94.0989 99° East 465 535 32,700  Level Houston Center
02:50PM 29.6917 -93.9175 91° East 474 545 33,000 120 Climbing Houston Center
02:51PM 29.7169 -93.7631 79° East 490 564 33,000  Level Houston Center
02:52PM 29.7408 -93.6106 80° East 489 563 33,000  Level Houston Center
02:53PM 29.7628 -93.4581 81° East 487 560 33,000  Level Houston Center
02:55PM 29.8005 -93.3208 81° East  Level FlightAware Approximate
02:56PM 29.8342 -92.9747 81° East 480 552 33,000  Level Houston Center
02:57PM 29.8564 -92.8244 80° East 479 551 33,000 -120 Level Houston Center
02:59PM 29.8643 -92.6976 81° East  Level Estimated
03:00PM 29.9264 -92.3356 82° East 488 562 32,600  Level Houston Center
03:01PM 29.9486 -92.1831 80° East 485 558 30,000 -2,280 Descending Houston Center
03:02PM 29.9023 -92.5674 81° East  Level FlightAware Approximate
03:03PM 29.9664 -92.0722 79° East  Level FlightAware Approximate
03:05PM 30.0086 -91.7494 82° East 449 517 23,300  Level Houston Center
03:06PM 29.9095 -91.9365 82° East  Level Estimated
03:06PM 30.0292 -91.6033 81° East 427 491 21,100  Level Houston Center
03:08PM 30.0631 -91.3556 81° East 386 444 17,300 -1,980 Descending Houston Center
03:08PM 30.0758 -91.2611 81° East 375 432 15,800 -2,340 Descending Houston Center
03:09PM 30.0811 -91.2153 82° East 370 426 14,900 -1,680 Descending Houston Center
03:10PM 30.0645 -91.3180 82° East  Level FlightAware Approximate
03:10PM 30.0894 -91.1192 84° East 360 414 13,800  Level Houston Center
03:10PM 30.0889 -91.0158 90° East 353 406 12,600 -1,500 Descending Houston Center
03:11PM 30.0900 -90.9881 87° East 352 405 12,000 -1,920 Descending Houston Center
03:12PM 30.0925 -90.9028 88° East 347 399 10,700 -1,500 Descending Houston Center
03:13PM 30.0872 -90.7937 93° East  Level FlightAware Approximate
03:13PM 30.0942 -90.7744 93° East 334 384 9,000  Level Houston Center
03:14PM 30.0950 -90.6864 89° East 298 343 8,000 -1,320 Descending Houston Center
03:15PM 30.0947 -90.5953 90° East 283 326 6,700 -1,260 Descending Houston Center
03:15PM 30.0967 -90.5700 85° East 296 341 6,400 -1,200 Descending Houston Center
03:16PM 30.0964 -90.5039 90° East 279 321 5,500 -1,500 Descending Houston Center
03:17PM 30.0986 -90.3917 89° East 281 323 3,300 -1,380 Descending Houston Center
03:18PM 30.1014 -90.3233 87° East 284 327 2,700 -720 Descending Houston Center
03:18PM 30.1017 -90.3022 89° East 281 323 2,600 -480 Descending Houston Center
03:19PM 30.0894 -90.2367 102° East 237 273 2,100 -840 Descending Houston Center
03:20PM 30.0525 -90.2292 170° South 137 158 1,200 -1,200 Descending Houston Center
03:20PM 30.0431 -90.2344 206° Southwest 176 203 900 -840 Descending Houston Center
03:21PM 30.0156 -90.2428 195° South 124 143 400 -720 Descending Houston Center